Ilyas Efendiyev — 9HES8 — position and weather

sailwx.info

Track history (hours):
 
Tides and Currents Weather Stations Pressure Air Temp Water Temp Dewpoint Dewpoint Depression Visibility Wind Speed Wind Dir Waves Ship Positions

Ilyas Efendiyev

Last reported at 2014-Oct-25 04:17 UTC. Time now 2014-Oct-26 07:00 UTC.
Position N 35°56' W 005°15'.

Length 140 m; draft 4.6 m.

Type: Cargo ship. MMSI: 215901000.

Date/timePositionNaut miles runAvg speedWind from/ knotsBaromVisibWave heightAir tempDewpointWater temp
2014-Oct-25 04:17N 35°56' W 005°15'4 4.9
2014-Oct-25 03:31N 35°54' W 005°19'0 0.0
2014-Oct-25 02:27N 35°54' W 005°19'0 0.0
2014-Oct-25 01:31N 35°54' W 005°19'0 0.0
2014-Oct-25 00:33N 35°54' W 005°19'1 1.0
2014-Oct-24 23:33N 35°55' W 005°19'6 6.1
2014-Oct-24 22:32N 35°57' W 005°26'224 6.9
2014-Oct-23 14:11N 37°25' W 009°43'5 8.0
2014-Oct-23 13:33N 37°30' W 009°44'8 8.1
2014-Oct-23 12:33N 37°37' W 009°47'8 8.1
2014-Oct-23 11:33N 37°45' W 009°49'8 8.1
2014-Oct-23 10:33N 37°53' W 009°51'8 8.1
2014-Oct-23 09:33N 38°01' W 009°53'8 8.0
2014-Oct-23 08:33N 38°09' W 009°55'8 8.2
2014-Oct-23 07:33N 38°17' W 009°57'8 8.2
2014-Oct-23 06:33N 38°25' W 009°59'8 8.3
2014-Oct-23 05:32N 38°33' W 010°02'8 8.1
2014-Oct-23 04:33N 38°41' W 010°05'8 7.7
2014-Oct-23 03:33N 38°49' W 010°05'8 8.0
2014-Oct-23 02:32N 38°57' W 010°05'8 7.9
2014-Oct-23 01:29N 39°05' W 010°04'9 7.8
2014-Oct-23 00:20N 39°14' W 010°04'6 8.1
2014-Oct-22 23:33N 39°20' W 010°04'  
2014-Oct-17 09:10N 50°33' E 000°12'5 8.5
2014-Oct-17 08:34N 50°35' E 000°20'8 8.2
2014-Oct-17 07:34N 50°36' E 000°33'8 7.7
2014-Oct-17 06:34N 50°40' E 000°43'25 7.8
2014-Oct-17 03:22N 50°57' E 001°13'7 8.5
2014-Oct-17 02:33N 51°01' E 001°21'9 9.3
2014-Oct-17 01:34N 51°07' E 001°33'9 9.5
2014-Oct-17 00:34N 51°13' E 001°44'9 9.1
2014-Oct-16 23:33N 51°22' E 001°50'8 8.2
2014-Oct-16 22:34N 51°29' E 001°54'8 8.3
2014-Oct-16 21:34N 51°36' E 001°46'8 7.6
2014-Oct-16 20:33N 51°44' E 001°44'7 7.1
2014-Oct-16 19:34N 51°51' E 001°40'6 6.5
2014-Oct-16 18:34N 51°55' E 001°33'8 8.4
2014-Oct-16 17:33N 51°56' E 001°20'7 7.0
2014-Oct-16 16:34N 52°01' E 001°12'2 1.9
2014-Oct-16 15:31N 52°02' E 001°10'0 0.0
2014-Oct-16 14:33N 52°02' E 001°10'0 0.0
2014-Oct-16 13:33N 52°02' E 001°10'0 0.0
2014-Oct-16 12:33N 52°02' E 001°10'0 0.0
2014-Oct-16 11:32N 52°02' E 001°10'0 0.0
2014-Oct-16 10:31N 52°02' E 001°10'0 0.0
2014-Oct-16 09:33N 52°02' E 001°10'0 0.0
2014-Oct-16 08:31N 52°02' E 001°10'0 0.0
2014-Oct-16 07:32N 52°02' E 001°10'0 0.0
2014-Oct-16 06:30N 52°02' E 001°10'0 0.0
2014-Oct-16 05:27N 52°02' E 001°10'0 0.0
2014-Oct-16 04:32N 52°02' E 001°10'0 0.0
2014-Oct-16 03:27N 52°02' E 001°10'0 0.0
2014-Oct-16 02:28N 52°02' E 001°10'0 0.0
2014-Oct-16 01:31N 52°02' E 001°10'0 0.0
2014-Oct-16 00:33N 52°02' E 001°10'0 0.0
2014-Oct-15 23:32N 52°02' E 001°10'0 0.0
2014-Oct-15 22:33N 52°02' E 001°10'0 0.0
2014-Oct-15 21:32N 52°02' E 001°10'0 0.0
2014-Oct-15 20:33N 52°02' E 001°10'0 0.0
2014-Oct-15 19:31N 52°02' E 001°10'0 0.0
2014-Oct-15 18:33N 52°02' E 001°10'0 0.0
2014-Oct-15 17:33N 52°02' E 001°10'0 0.0
2014-Oct-15 16:31N 52°02' E 001°10'0 0.0
2014-Oct-15 15:25N 52°02' E 001°10'0 0.0
2014-Oct-15 14:31N 52°02' E 001°10'0 0.0
2014-Oct-15 13:29N 52°02' E 001°10'0 0.0
2014-Oct-15 12:31N 52°02' E 001°10'0 0.0
2014-Oct-15 11:28N 52°02' E 001°10'0 0.0
2014-Oct-15 10:32N 52°02' E 001°10'0 0.0
2014-Oct-15 09:31N 52°02' E 001°10'0 0.0
2014-Oct-15 08:32N 52°02' E 001°10'0 0.0
2014-Oct-15 07:32N 52°02' E 001°10'0 0.0
2014-Oct-15 06:26N 52°02' E 001°10'0 0.0
2014-Oct-15 05:32N 52°02' E 001°10'0 0.0
2014-Oct-15 04:33N 52°02' E 001°10'  
Track history (hours):
 
Tides and Currents Weather Stations Pressure Air Temp Water Temp Dewpoint Dewpoint Depression Visibility Wind Speed Wind Dir Waves Ship Positions

Ilyas Efendiyev

Last reported at 2014-Oct-25 04:17 UTC. Time now 2014-Oct-26 07:00 UTC.
Position N 35°56' W 005°15'.

Length 140 m; draft 4.6 m.

Type: Cargo ship. MMSI: 215901000.

Date/timePositionNaut miles runAvg speedWind from/ knotsBaromVisibWave heightAir tempDewpointWater temp
2014-Oct-25 04:17N 35°56' W 005°15'4 4.9
2014-Oct-25 03:31N 35°54' W 005°19'0 0.0
2014-Oct-25 02:27N 35°54' W 005°19'0 0.0
2014-Oct-25 01:31N 35°54' W 005°19'0 0.0
2014-Oct-25 00:33N 35°54' W 005°19'1 1.0
2014-Oct-24 23:33N 35°55' W 005°19'6 6.1
2014-Oct-24 22:32N 35°57' W 005°26'224 6.9
2014-Oct-23 14:11N 37°25' W 009°43'5 8.0
2014-Oct-23 13:33N 37°30' W 009°44'8 8.1
2014-Oct-23 12:33N 37°37' W 009°47'8 8.1
2014-Oct-23 11:33N 37°45' W 009°49'8 8.1
2014-Oct-23 10:33N 37°53' W 009°51'8 8.1
2014-Oct-23 09:33N 38°01' W 009°53'8 8.0
2014-Oct-23 08:33N 38°09' W 009°55'8 8.2
2014-Oct-23 07:33N 38°17' W 009°57'8 8.2
2014-Oct-23 06:33N 38°25' W 009°59'8 8.3
2014-Oct-23 05:32N 38°33' W 010°02'8 8.1
2014-Oct-23 04:33N 38°41' W 010°05'8 7.7
2014-Oct-23 03:33N 38°49' W 010°05'8 8.0
2014-Oct-23 02:32N 38°57' W 010°05'8 7.9
2014-Oct-23 01:29N 39°05' W 010°04'9 7.8
2014-Oct-23 00:20N 39°14' W 010°04'6 8.1
2014-Oct-22 23:33N 39°20' W 010°04'  
2014-Oct-17 09:10N 50°33' E 000°12'5 8.5
2014-Oct-17 08:34N 50°35' E 000°20'8 8.2
2014-Oct-17 07:34N 50°36' E 000°33'8 7.7
2014-Oct-17 06:34N 50°40' E 000°43'25 7.8
2014-Oct-17 03:22N 50°57' E 001°13'7 8.5
2014-Oct-17 02:33N 51°01' E 001°21'9 9.3
2014-Oct-17 01:34N 51°07' E 001°33'9 9.5
2014-Oct-17 00:34N 51°13' E 001°44'9 9.1
2014-Oct-16 23:33N 51°22' E 001°50'8 8.2
2014-Oct-16 22:34N 51°29' E 001°54'8 8.3
2014-Oct-16 21:34N 51°36' E 001°46'8 7.6
2014-Oct-16 20:33N 51°44' E 001°44'7 7.1
2014-Oct-16 19:34N 51°51' E 001°40'6 6.5
2014-Oct-16 18:34N 51°55' E 001°33'8 8.4
2014-Oct-16 17:33N 51°56' E 001°20'7 7.0
2014-Oct-16 16:34N 52°01' E 001°12'2 1.9
2014-Oct-16 15:31N 52°02' E 001°10'0 0.0
2014-Oct-16 14:33N 52°02' E 001°10'0 0.0
2014-Oct-16 13:33N 52°02' E 001°10'0 0.0
2014-Oct-16 12:33N 52°02' E 001°10'0 0.0
2014-Oct-16 11:32N 52°02' E 001°10'0 0.0
2014-Oct-16 10:31N 52°02' E 001°10'0 0.0
2014-Oct-16 09:33N 52°02' E 001°10'0 0.0
2014-Oct-16 08:31N 52°02' E 001°10'0 0.0
2014-Oct-16 07:32N 52°02' E 001°10'0 0.0
2014-Oct-16 06:30N 52°02' E 001°10'0 0.0
2014-Oct-16 05:27N 52°02' E 001°10'0 0.0
2014-Oct-16 04:32N 52°02' E 001°10'0 0.0
2014-Oct-16 03:27N 52°02' E 001°10'0 0.0
2014-Oct-16 02:28N 52°02' E 001°10'0 0.0
2014-Oct-16 01:31N 52°02' E 001°10'0 0.0
2014-Oct-16 00:33N 52°02' E 001°10'0 0.0
2014-Oct-15 23:32N 52°02' E 001°10'0 0.0
2014-Oct-15 22:33N 52°02' E 001°10'0 0.0
2014-Oct-15 21:32N 52°02' E 001°10'0 0.0
2014-Oct-15 20:33N 52°02' E 001°10'0 0.0
2014-Oct-15 19:31N 52°02' E 001°10'0 0.0
2014-Oct-15 18:33N 52°02' E 001°10'0 0.0
2014-Oct-15 17:33N 52°02' E 001°10'0 0.0
2014-Oct-15 16:31N 52°02' E 001°10'0 0.0
2014-Oct-15 15:25N 52°02' E 001°10'0 0.0
2014-Oct-15 14:31N 52°02' E 001°10'0 0.0
2014-Oct-15 13:29N 52°02' E 001°10'0 0.0
2014-Oct-15 12:31N 52°02' E 001°10'0 0.0
2014-Oct-15 11:28N 52°02' E 001°10'0 0.0
2014-Oct-15 10:32N 52°02' E 001°10'0 0.0
2014-Oct-15 09:31N 52°02' E 001°10'0 0.0
2014-Oct-15 08:32N 52°02' E 001°10'0 0.0
2014-Oct-15 07:32N 52°02' E 001°10'0 0.0
2014-Oct-15 06:26N 52°02' E 001°10'0 0.0
2014-Oct-15 05:32N 52°02' E 001°10'0 0.0
2014-Oct-15 04:33N 52°02' E 001°10'  

Dump ship's entire track history